Time;durP1;ratioP1;P1;durP2;ratioP2;P2;SDS_P1;SDS_P2;PMS_P1;PMS_P2;Temp;Humidity;BMP_temperature;BMP_pressure;BME280_temperature;BME280_humidity;BME280_pressure;Samples;Min_cycle;Max_cycle;Signal;HPM_P1;HPM_P2
2023/04/03 00:01:08;;;;;;;6.10;5.50;;;3.50;99.90;;;;;;5034307;28;20543;-56
2023/04/03 00:03:34;;;;;;;8.02;4.85;;;3.50;99.90;;;;;;5034420;28;20029;-55
2023/04/03 00:06:15;;;;;;;5.95;5.35;;;3.60;99.90;;;;;;5033923;28;20029;-56
2023/04/03 00:08:41;;;;;;;5.75;5.25;;;3.50;99.90;;;;;;5034362;28;20029;-55
2023/04/03 00:11:07;;;;;;;7.30;5.30;;;3.50;99.90;;;;;;5034166;28;20029;-55
2023/04/03 00:13:33;;;;;;;6.68;5.50;;;3.50;99.90;;;;;;5034140;28;20037;-54
2023/04/03 00:15:59;;;;;;;6.93;5.20;;;3.40;99.90;;;;;;5034073;28;20037;-56
2023/04/03 00:18:25;;;;;;;6.60;5.45;;;3.50;99.90;;;;;;5034065;28;20021;-55
2023/04/03 00:20:50;;;;;;;5.93;5.20;;;3.40;99.90;;;;;;5033896;28;20022;-53
2023/04/03 00:23:16;;;;;;;6.60;5.95;;;3.40;99.90;;;;;;5034156;28;20389;-57
2023/04/03 00:25:42;;;;;;;7.07;5.63;;;3.40;99.90;;;;;;5032788;28;20338;-55
2023/04/03 00:28:08;;;;;;;6.30;5.70;;;3.50;99.90;;;;;;5033897;28;20029;-55
2023/04/03 00:30:34;;;;;;;20.13;6.55;;;3.50;99.90;;;;;;5033934;28;20029;-51
2023/04/03 00:33:00;;;;;;;6.35;5.60;;;3.50;99.90;;;;;;5033623;28;20057;-60
2023/04/03 00:35:27;;;;;;;6.72;5.57;;;3.50;99.90;;;;;;5033779;28;20131;-52
2023/04/03 00:37:54;;;;;;;5.90;5.20;;;3.50;99.90;;;;;;5033638;28;20104;-54
2023/04/03 00:40:21;;;;;;;6.25;5.65;;;3.50;99.90;;;;;;5052046;28;20389;-57
2023/04/03 00:42:48;;;;;;;8.88;6.05;;;3.50;99.90;;;;;;5052470;28;20075;-55
2023/04/03 00:45:49;;;;;;;6.30;5.60;;;3.50;99.90;;;;;;5053586;28;20514;-54
2023/04/03 00:48:22;;;;;;;6.05;5.45;;;3.50;99.90;;;;;;5052647;28;20514;-58
2023/04/03 00:50:48;;;;;;;8.18;5.75;;;3.50;99.90;;;;;;5052238;28;20456;-58
2023/04/03 00:53:22;;;;;;;5.93;5.20;;;3.50;99.90;;;;;;5053358;28;20036;-57
2023/04/03 00:55:49;;;;;;;5.82;5.25;;;3.50;99.90;;;;;;5053323;28;20033;-58
2023/04/03 00:58:20;;;;;;;5.57;5.07;;;3.50;99.90;;;;;;5053379;28;20025;-55
2023/04/03 01:00:56;;;;;;;7.38;5.43;;;3.50;99.90;;;;;;5053430;28;20021;-54
2023/04/03 01:03:21;;;;;;;6.72;5.13;;;3.50;99.90;;;;;;5053208;28;20017;-59
2023/04/03 01:05:47;;;;;;;7.50;5.82;;;3.40;99.90;;;;;;5053310;28;20368;-54
2023/04/03 01:08:13;;;;;;;7.15;5.80;;;3.40;99.90;;;;;;5053103;28;20523;-53
2023/04/03 01:10:39;;;;;;;6.50;5.85;;;3.40;99.90;;;;;;5053010;28;20025;-57
2023/04/03 01:13:19;;;;;;;6.13;5.55;;;3.50;99.90;;;;;;5052861;28;20043;-54
2023/04/03 01:15:45;;;;;;;6.15;5.57;;;3.40;99.90;;;;;;5052502;28;20029;-54
2023/04/03 01:18:11;;;;;;;7.22;5.25;;;3.40;99.90;;;;;;5052850;28;20056;-54
2023/04/03 01:21:08;;;;;;;6.80;6.10;;;3.40;99.90;;;;;;5052935;28;20075;-59
2023/04/03 01:23:56;;;;;;;5.53;4.85;;;3.30;99.90;;;;;;5051578;28;20484;-55
2023/04/03 01:26:22;;;;;;;6.85;5.65;;;3.40;99.90;;;;;;5052805;28;20119;-58
2023/04/03 01:28:47;;;;;;;5.50;5.00;;;3.30;99.90;;;;;;5052772;28;20470;-56
2023/04/03 01:31:26;;;;;;;9.48;6.05;;;3.30;99.90;;;;;;5052433;28;20027;-58
2023/04/03 01:33:53;;;;;;;7.32;6.50;;;3.40;99.90;;;;;;5052483;28;20055;-55
2023/04/03 01:36:22;;;;;;;6.72;5.45;;;3.40;99.90;;;;;;5052722;28;20029;-54
2023/04/03 01:38:48;;;;;;;6.43;5.82;;;3.40;99.90;;;;;;5052643;28;20021;-52
2023/04/03 01:41:15;;;;;;;6.82;5.90;;;3.40;99.90;;;;;;5052406;28;20032;-55
2023/04/03 01:43:41;;;;;;;6.22;5.50;;;3.40;99.90;;;;;;5052302;28;20116;-51
2023/04/03 01:46:07;;;;;;;6.15;5.47;;;3.40;99.90;;;;;;5052211;28;20021;-55
2023/04/03 01:48:33;;;;;;;6.22;5.50;;;3.40;99.90;;;;;;5052448;28;20012;-52
2023/04/03 01:50:59;;;;;;;5.82;5.20;;;3.40;99.90;;;;;;5052183;28;20083;-57
2023/04/03 01:53:25;;;;;;;8.82;5.88;;;3.40;99.90;;;;;;5051057;28;20026;-54
2023/04/03 01:55:50;;;;;;;7.38;5.38;;;3.40;99.90;;;;;;5052161;28;20104;-56
2023/04/03 01:58:16;;;;;;;8.65;6.13;;;3.40;99.90;;;;;;5051997;28;20407;-59
2023/04/03 02:00:42;;;;;;;6.68;5.10;;;3.30;99.90;;;;;;5052069;28;20036;-58
2023/04/03 02:03:07;;;;;;;7.30;5.57;;;3.40;99.90;;;;;;5052045;28;20019;-57
2023/04/03 02:05:33;;;;;;;6.78;4.93;;;3.30;99.90;;;;;;5051879;28;20699;-53
2023/04/03 02:07:59;;;;;;;7.10;5.22;;;3.40;99.90;;;;;;5051810;28;20021;-58
2023/04/03 02:10:24;;;;;;;6.93;6.00;;;3.30;99.90;;;;;;5050726;28;20033;-57
2023/04/03 02:12:50;;;;;;;6.13;5.53;;;3.40;99.90;;;;;;5051757;28;20049;-56
2023/04/03 02:15:16;;;;;;;8.25;5.40;;;3.40;99.90;;;;;;5051889;28;20029;-55
2023/04/03 02:17:42;;;;;;;7.15;5.10;;;3.40;99.90;;;;;;5051952;28;20024;-52
2023/04/03 02:20:09;;;;;;;7.55;5.63;;;3.40;99.90;;;;;;5051699;28;20029;-55
2023/04/03 02:22:35;;;;;;;5.93;5.32;;;3.30;99.90;;;;;;5051786;28;20025;-59
2023/04/03 02:25:00;;;;;;;7.07;6.38;;;3.30;99.90;;;;;;5050962;28;20040;-56
2023/04/03 02:27:26;;;;;;;7.57;5.60;;;3.30;99.90;;;;;;5050600;28;20021;-59
2023/04/03 02:29:52;;;;;;;5.88;5.30;;;3.40;99.90;;;;;;5050816;28;20130;-54
2023/04/03 02:32:18;;;;;;;8.98;6.03;;;3.40;99.90;;;;;;5051099;28;20107;-58
2023/04/03 02:34:44;;;;;;;9.05;5.65;;;3.40;99.90;;;;;;5051456;28;20059;-58
2023/04/03 02:37:09;;;;;;;6.22;5.25;;;3.40;99.90;;;;;;5051145;28;20559;-59
2023/04/03 02:39:35;;;;;;;5.63;5.13;;;3.40;99.90;;;;;;5051265;28;20035;-59
2023/04/03 02:42:01;;;;;;;5.30;4.80;;;3.30;99.90;;;;;;5050934;28;20480;-54
2023/04/03 02:44:26;;;;;;;5.72;5.10;;;3.30;99.90;;;;;;5051177;28;20037;-59
2023/04/03 02:46:52;;;;;;;6.03;5.40;;;3.30;99.90;;;;;;5051392;28;20104;-55
2023/04/03 02:49:18;;;;;;;6.30;5.28;;;3.30;99.90;;;;;;5051499;28;20044;-55
2023/04/03 02:51:44;;;;;;;6.35;4.78;;;3.30;99.90;;;;;;5051563;28;20352;-57
2023/04/03 02:54:09;;;;;;;6.22;5.65;;;3.30;99.90;;;;;;5051333;28;20103;-57
2023/04/03 02:56:35;;;;;;;6.78;6.07;;;3.30;99.90;;;;;;5051312;28;20035;-55
2023/04/03 02:59:01;;;;;;;6.07;5.15;;;3.30;99.90;;;;;;5051159;28;20116;-58
2023/04/03 03:01:31;;;;;;;7.30;5.85;;;3.30;99.90;;;;;;5051490;28;20040;-56
2023/04/03 03:03:57;;;;;;;6.75;6.05;;;3.30;99.90;;;;;;5051182;28;20052;-56
2023/04/03 03:06:23;;;;;;;8.32;5.28;;;3.40;99.90;;;;;;5051485;28;20048;-55
2023/04/03 03:08:48;;;;;;;6.13;5.32;;;3.30;99.90;;;;;;5051335;28;20025;-55
2023/04/03 03:11:14;;;;;;;5.68;5.18;;;3.30;99.90;;;;;;5051121;28;20021;-60
2023/04/03 03:13:40;;;;;;;6.60;5.65;;;3.30;99.90;;;;;;5051143;28;20073;-55
2023/04/03 03:16:06;;;;;;;8.00;6.28;;;3.30;99.90;;;;;;5051194;28;20471;-58
2023/04/03 03:18:32;;;;;;;5.80;5.20;;;3.30;99.90;;;;;;5051394;28;20116;-57
2023/04/03 03:20:59;;;;;;;9.98;5.75;;;3.40;99.90;;;;;;5051145;28;20108;-53
2023/04/03 03:23:26;;;;;;;6.53;5.75;;;3.40;99.90;;;;;;5051126;28;20032;-53
2023/04/03 03:26:00;;;;;;;6.18;5.50;;;3.40;99.90;;;;;;5050922;28;20029;-57
2023/04/03 03:28:26;;;;;;;5.95;5.35;;;3.40;99.90;;;;;;5051078;28;20017;-58
2023/04/03 03:30:52;;;;;;;6.38;5.10;;;3.40;99.90;;;;;;5050953;28;20017;-57
2023/04/03 03:33:18;;;;;;;8.88;5.32;;;3.40;99.90;;;;;;5051206;28;20021;-59
2023/04/03 03:35:44;;;;;;;9.50;5.80;;;3.30;99.90;;;;;;5051143;28;20059;-59
2023/04/03 03:38:10;;;;;;;6.13;5.55;;;3.30;99.90;;;;;;5050985;28;20037;-52
2023/04/03 03:40:36;;;;;;;6.28;5.20;;;3.30;99.90;;;;;;5053969;28;20032;-55
2023/04/03 03:43:01;;;;;;;6.35;5.25;;;3.30;99.90;;;;;;5054525;28;20029;-59
2023/04/03 03:45:27;;;;;;;5.63;5.13;;;3.30;99.90;;;;;;5054619;28;20056;-52
2023/04/03 03:47:53;;;;;;;6.32;5.72;;;3.30;99.90;;;;;;5054485;28;20025;-55
2023/04/03 03:50:18;;;;;;;6.65;5.72;;;3.30;99.90;;;;;;5054651;28;20029;-53
2023/04/03 03:52:44;;;;;;;7.40;6.43;;;3.20;99.90;;;;;;5054710;28;20029;-60
2023/04/03 03:55:10;;;;;;;7.43;6.43;;;3.20;99.90;;;;;;5054308;28;20028;-58
2023/04/03 03:57:36;;;;;;;7.53;6.43;;;3.20;99.90;;;;;;5054563;28;20029;-59
2023/04/03 04:00:03;;;;;;;6.68;6.00;;;3.20;99.90;;;;;;5054385;28;20100;-56
2023/04/03 04:02:28;;;;;;;6.40;5.47;;;3.10;99.90;;;;;;5054462;28;20023;-54
2023/04/03 04:04:54;;;;;;;7.00;5.57;;;3.20;99.90;;;;;;5054180;28;20511;-51
2023/04/03 04:07:20;;;;;;;5.93;5.32;;;3.20;99.90;;;;;;5054316;28;20056;-58
2023/04/03 04:09:45;;;;;;;5.45;4.95;;;3.20;99.90;;;;;;5054202;28;20755;-58
2023/04/03 04:12:11;;;;;;;7.28;5.88;;;3.20;99.90;;;;;;5053869;28;20055;-57
2023/04/03 04:14:37;;;;;;;7.13;6.22;;;3.20;99.90;;;;;;5054201;28;20436;-53
2023/04/03 04:17:02;;;;;;;7.53;5.70;;;3.20;99.90;;;;;;5054041;28;20107;-57
2023/04/03 04:19:28;;;;;;;7.60;6.40;;;3.20;99.90;;;;;;5054135;28;20033;-57
2023/04/03 04:21:54;;;;;;;6.60;5.95;;;3.10;99.90;;;;;;5053981;28;20029;-55
2023/04/03 04:24:20;;;;;;;11.82;5.90;;;3.10;99.90;;;;;;5053989;28;20499;-54
2023/04/03 04:26:45;;;;;;;6.93;6.22;;;3.00;99.90;;;;;;5053955;28;20648;-56
2023/04/03 04:29:11;;;;;;;8.02;6.93;;;3.00;99.90;;;;;;5053764;28;20021;-53
2023/04/03 04:31:37;;;;;;;11.18;7.13;;;3.00;99.90;;;;;;5053952;28;20029;-51
2023/04/03 04:34:02;;;;;;;7.63;6.05;;;3.00;99.90;;;;;;5053723;28;20029;-55
2023/04/03 04:36:28;;;;;;;8.57;6.20;;;3.00;99.90;;;;;;5053841;28;20071;-56
2023/04/03 04:38:54;;;;;;;6.03;5.43;;;2.90;99.90;;;;;;5053644;28;20104;-56
2023/04/03 04:41:22;;;;;;;12.00;6.57;;;2.90;99.90;;;;;;5053661;28;20017;-56
2023/04/03 04:43:48;;;;;;;8.65;6.03;;;2.90;99.90;;;;;;5053613;28;20028;-58
2023/04/03 04:46:15;;;;;;;6.63;5.53;;;3.00;99.90;;;;;;5053584;28;20025;-56
2023/04/03 04:48:41;;;;;;;7.25;5.88;;;2.90;99.90;;;;;;5053651;28;20124;-56
2023/04/03 04:51:06;;;;;;;7.18;6.30;;;2.90;99.90;;;;;;5051125;28;20041;-54
2023/04/03 04:53:32;;;;;;;8.13;5.10;;;2.90;99.90;;;;;;5053409;28;20036;-54
2023/04/03 04:55:58;;;;;;;9.25;5.60;;;3.00;99.90;;;;;;5053327;28;20041;-56
2023/04/03 04:58:25;;;;;;;7.63;5.90;;;3.00;99.90;;;;;;5052063;28;20033;-54
2023/04/03 05:00:58;;;;;;;6.65;5.88;;;3.00;99.90;;;;;;5053245;28;20460;-54
2023/04/03 05:03:24;;;;;;;;;;;3.10;99.90;;;;;;5053741;28;20479;-55
2023/04/03 05:05:50;;;;;;;8.10;5.85;;;3.10;99.90;;;;;;5053020;28;19944;-56
2023/04/03 05:08:15;;;;;;;6.53;5.20;;;3.10;99.90;;;;;;5053169;28;20448;-55
2023/04/03 05:10:42;;;;;;;6.72;6.00;;;3.10;99.90;;;;;;5053047;28;20040;-59
2023/04/03 05:13:07;;;;;;;9.63;7.10;;;3.10;99.90;;;;;;5052903;28;20048;-52
2023/04/03 05:15:33;;;;;;;9.02;6.35;;;3.10;99.90;;;;;;5053157;28;20021;-55
2023/04/03 05:17:59;;;;;;;10.40;6.22;;;3.20;99.90;;;;;;5052875;28;20068;-55
2023/04/03 05:20:25;;;;;;;9.20;6.97;;;3.20;99.90;;;;;;5052868;28;20070;-57
2023/04/03 05:22:50;;;;;;;13.65;5.88;;;3.20;99.90;;;;;;5052764;28;20025;-57
2023/04/03 05:25:16;;;;;;;8.95;5.55;;;3.30;99.90;;;;;;5052719;28;20614;-54
2023/04/03 05:27:42;;;;;;;6.68;5.60;;;3.30;99.90;;;;;;5052962;28;20068;-56
2023/04/03 05:30:08;;;;;;;6.80;5.85;;;3.30;99.90;;;;;;5052590;28;20070;-58
2023/04/03 05:32:34;;;;;;;9.13;6.63;;;3.20;99.90;;;;;;5051411;28;20049;-55
2023/04/03 05:34:59;;;;;;;12.38;6.72;;;3.20;99.90;;;;;;5052372;28;20044;-56
2023/04/03 05:37:25;;;;;;;15.95;8.07;;;3.30;99.90;;;;;;5052645;28;20360;-53
2023/04/03 05:39:51;;;;;;;14.90;7.85;;;3.30;99.90;;;;;;5052249;28;20021;-55
2023/04/03 05:42:17;;;;;;;9.88;6.50;;;3.30;99.90;;;;;;5052539;28;20114;-57
2023/04/03 05:44:43;;;;;;;42.28;22.30;;;3.30;99.90;;;;;;5052425;28;20076;-56
2023/04/03 05:47:08;;;;;;;21.00;11.45;;;3.30;99.90;;;;;;5052276;28;20021;-56
2023/04/03 05:49:34;;;;;;;9.10;7.22;;;3.30;99.90;;;;;;5052315;28;20027;-55
2023/04/03 05:52:01;;;;;;;7.07;6.13;;;3.40;99.90;;;;;;5052227;28;20025;-58
2023/04/03 05:54:28;;;;;;;8.13;5.18;;;3.40;99.90;;;;;;5052247;28;20033;-55
2023/04/03 05:56:54;;;;;;;8.27;6.28;;;3.40;99.90;;;;;;5052194;28;20120;-55
2023/04/03 05:59:20;;;;;;;12.20;7.43;;;3.40;99.90;;;;;;5050804;28;20108;-53
2023/04/03 06:01:47;;;;;;;15.63;7.07;;;3.40;99.90;;;;;;5052045;28;20031;-55
2023/04/03 06:04:13;;;;;;;16.63;6.68;;;3.40;99.90;;;;;;5051774;28;20025;-57
2023/04/03 06:06:51;;;;;;;11.02;6.18;;;3.50;99.90;;;;;;5051953;28;20480;-58
2023/04/03 06:09:18;;;;;;;7.78;6.38;;;3.60;99.90;;;;;;5052046;28;20017;-58
2023/04/03 06:11:44;;;;;;;13.43;7.57;;;3.60;99.90;;;;;;5051782;28;20032;-56
2023/04/03 06:14:10;;;;;;;9.57;6.82;;;3.60;99.90;;;;;;5051826;28;20090;-57
2023/04/03 06:16:37;;;;;;;11.85;7.07;;;3.60;99.90;;;;;;5051950;28;20036;-56
2023/04/03 06:19:03;;;;;;;17.50;8.43;;;3.70;99.90;;;;;;5050560;28;20091;-52
2023/04/03 06:21:30;;;;;;;7.82;6.68;;;3.70;99.90;;;;;;5051750;28;20590;-57
2023/04/03 06:23:56;;;;;;;7.70;6.20;;;3.70;99.90;;;;;;5051535;28;20029;-58
2023/04/03 06:26:22;;;;;;;13.05;7.93;;;3.70;99.90;;;;;;5050464;28;20040;-56
2023/04/03 06:28:48;;;;;;;12.80;6.47;;;3.80;99.90;;;;;;5051699;28;20021;-56
2023/04/03 06:31:13;;;;;;;13.40;6.25;;;3.80;99.90;;;;;;5051665;28;20432;-54
2023/04/03 06:33:39;;;;;;;7.75;6.00;;;3.80;99.90;;;;;;5051753;28;20032;-56
2023/04/03 06:36:06;;;;;;;8.20;5.45;;;3.80;99.90;;;;;;5051424;28;20029;-59
2023/04/03 06:38:33;;;;;;;6.75;5.95;;;3.90;99.90;;;;;;5051606;28;20017;-52
2023/04/03 06:40:58;;;;;;;8.35;6.13;;;4.00;99.90;;;;;;5051243;28;20131;-55
2023/04/03 06:43:24;;;;;;;7.07;5.22;;;4.00;99.90;;;;;;5051638;28;20122;-54
2023/04/03 06:45:50;;;;;;;7.68;5.88;;;4.00;99.90;;;;;;5051092;28;20074;-55
2023/04/03 06:48:16;;;;;;;14.63;5.97;;;4.10;99.90;;;;;;5051258;28;20031;-53
2023/04/03 06:50:42;;;;;;;8.05;6.25;;;4.20;99.90;;;;;;5051419;28;20029;-54
2023/04/03 06:53:08;;;;;;;6.78;5.80;;;4.20;99.90;;;;;;5051255;28;20043;-55
2023/04/03 06:55:34;;;;;;;5.78;5.25;;;4.30;99.90;;;;;;5050561;28;20033;-59
2023/04/03 06:58:00;;;;;;;5.43;4.65;;;4.30;99.90;;;;;;5051159;28;20040;-53
2023/04/03 07:00:26;;;;;;;6.30;5.65;;;4.40;99.90;;;;;;5051324;28;20025;-55
2023/04/03 07:02:52;;;;;;;7.43;5.80;;;4.30;99.90;;;;;;5050039;28;20079;-55
2023/04/03 07:05:18;;;;;;;7.53;5.25;;;4.40;99.90;;;;;;5051243;28;20071;-55
2023/04/03 07:07:44;;;;;;;8.02;5.68;;;4.40;99.90;;;;;;5051344;28;20063;-53
2023/04/03 07:10:11;;;;;;;6.72;5.75;;;4.50;99.90;;;;;;5051188;28;20419;-58
2023/04/03 07:12:37;;;;;;;7.50;5.75;;;4.60;99.90;;;;;;5049812;28;20068;-58
2023/04/03 07:15:05;;;;;;;6.53;5.70;;;4.70;99.90;;;;;;5053196;28;20036;-52
2023/04/03 07:17:31;;;;;;;6.90;4.93;;;4.70;99.90;;;;;;5055175;28;20411;-57
2023/04/03 07:19:56;;;;;;;9.93;5.80;;;4.70;99.90;;;;;;5055093;28;20115;-54
2023/04/03 07:22:22;;;;;;;5.63;5.03;;;4.70;99.90;;;;;;5055264;28;20438;-53
2023/04/03 07:24:48;;;;;;;9.55;5.10;;;4.90;99.90;;;;;;5055087;28;20072;-57
2023/04/03 07:27:14;;;;;;;5.97;4.82;;;5.10;99.90;;;;;;5054821;28;20467;-56
2023/04/03 07:29:39;;;;;;;7.78;5.60;;;5.20;99.90;;;;;;5054893;28;20040;-57
2023/04/03 07:32:06;;;;;;;11.20;5.07;;;5.40;99.90;;;;;;5054868;28;20025;-55
2023/04/03 07:34:32;;;;;;;7.97;4.75;;;5.50;99.90;;;;;;5054602;28;20490;-57
2023/04/03 07:36:58;;;;;;;6.63;4.95;;;5.60;99.90;;;;;;5054566;28;20032;-57
2023/04/03 07:39:24;;;;;;;7.03;5.05;;;5.30;99.90;;;;;;5054639;28;20025;-60
2023/04/03 07:41:50;;;;;;;10.93;5.93;;;5.40;99.90;;;;;;5054292;28;20021;-57
2023/04/03 07:44:16;;;;;;;5.13;4.65;;;5.30;99.90;;;;;;5054340;28;20083;-57
2023/04/03 07:46:42;;;;;;;5.47;4.38;;;5.20;99.90;;;;;;5054425;28;20033;-56
2023/04/03 07:49:08;;;;;;;5.93;4.32;;;5.30;99.90;;;;;;5054410;28;20021;-56
2023/04/03 07:51:34;;;;;;;27.67;15.05;;;5.40;99.90;;;;;;5054194;28;20468;-57
2023/04/03 07:54:00;;;;;;;6.75;5.75;;;5.40;99.90;;;;;;5054451;28;20171;-58
2023/04/03 07:56:26;;;;;;;10.63;5.75;;;5.40;99.90;;;;;;5054463;28;20514;-59
2023/04/03 07:58:52;;;;;;;4.28;3.88;;;5.40;99.90;;;;;;5054181;28;20120;-60
2023/04/03 08:01:17;;;;;;;7.63;5.18;;;5.50;99.90;;;;;;5054223;28;20017;-57
2023/04/03 08:03:43;;;;;;;10.63;6.30;;;5.60;99.90;;;;;;5053886;28;20029;-55
2023/04/03 08:06:10;;;;;;;4.85;4.35;;;5.80;99.90;;;;;;5054108;28;20032;-57
2023/04/03 08:08:36;;;;;;;6.38;5.85;;;5.70;99.90;;;;;;5054341;28;20048;-57
2023/04/03 08:11:02;;;;;;;9.88;8.98;;;5.90;99.90;;;;;;5053287;28;20021;-59
2023/04/03 08:13:30;;;;;;;6.28;4.32;;;5.90;99.50;;;;;;5053658;28;20056;-57
2023/04/03 08:15:57;;;;;;;4.40;3.80;;;6.10;99.80;;;;;;5053732;28;20025;-54
2023/04/03 08:18:24;;;;;;;4.43;3.42;;;6.10;99.90;;;;;;5053382;28;20046;-57
2023/04/03 08:20:51;;;;;;;5.93;4.55;;;6.10;99.90;;;;;;5053645;28;20029;-58
2023/04/03 08:23:17;;;;;;;3.47;3.10;;;6.40;99.40;;;;;;5052567;28;20504;-57
2023/04/03 08:25:43;;;;;;;6.53;3.08;;;6.20;98.00;;;;;;5052584;28;20032;-55
2023/04/03 08:28:11;;;;;;;5.13;3.92;;;6.10;98.50;;;;;;5053581;28;20115;-58
2023/04/03 08:30:42;;;;;;;4.38;3.42;;;5.80;97.50;;;;;;5052468;28;20025;-60
2023/04/03 08:33:08;;;;;;;4.10;3.70;;;5.70;97.90;;;;;;5053570;28;20029;-56
2023/04/03 08:35:39;;;;;;;8.57;4.60;;;6.00;97.90;;;;;;5053823;28;20028;-56
2023/04/03 08:38:04;;;;;;;11.27;7.82;;;6.50;97.40;;;;;;5053514;28;20033;-52
2023/04/03 08:40:30;;;;;;;5.15;3.33;;;6.60;96.20;;;;;;5053481;28;20021;-57
2023/04/03 08:42:56;;;;;;;5.65;3.15;;;6.90;96.90;;;;;;5053388;28;20038;-56
2023/04/03 08:45:40;;;;;;;4.55;2.97;;;7.10;96.80;;;;;;5053636;28;20021;-58
2023/04/03 08:48:12;;;;;;;5.25;2.95;;;7.30;94.20;;;;;;5050005;28;20022;-54
2023/04/03 08:50:41;;;;;;;3.55;2.53;;;7.20;94.60;;;;;;5033655;28;20080;-59
2023/04/03 08:53:15;;;;;;;6.07;3.95;;;7.10;95.30;;;;;;5033393;28;20041;-55
2023/04/03 08:55:47;;;;;;;;;;;6.40;99.90;;;;;;5034050;28;20029;-56
2023/04/03 08:58:25;;;;;;;4.78;4.40;;;6.10;99.90;;;;;;5033351;28;20062;-57
2023/04/03 09:01:00;;;;;;;6.90;4.57;;;6.20;99.90;;;;;;5033124;28;20064;-53
2023/04/03 09:03:30;;;;;;;5.70;4.68;;;6.00;99.90;;;;;;5033470;28;20537;-58
2023/04/03 09:06:05;;;;;;;6.72;4.25;;;4.90;99.90;;;;;;5033192;28;20048;-57
2023/04/03 09:08:40;;;;;;;7.35;4.28;;;5.00;1.00;;;;;;5033244;28;20018;-56
2023/04/03 09:11:36;;;;;;;6.50;4.20;;;5.10;99.90;;;;;;5033517;28;20049;-55
2023/04/03 09:14:08;;;;;;;8.70;4.60;;;4.90;99.90;;;;;;5033247;28;20103;-55
2023/04/03 09:16:48;;;;;;;6.05;4.10;;;5.00;1.00;;;;;;5033123;28;20026;-53
2023/04/03 09:19:23;;;;;;;7.97;4.13;;;5.30;99.90;;;;;;5033200;28;20113;-55
2023/04/03 09:21:48;;;;;;;4.85;3.28;;;5.70;1.00;;;;;;5032914;28;20021;-56
2023/04/03 09:24:16;;;;;;;5.55;4.38;;;5.80;99.90;;;;;;5032634;28;20083;-56
2023/04/03 09:27:03;;;;;;;4.68;3.50;;;5.50;1.00;;;;;;5032997;28;20024;-56
2023/04/03 09:29:29;;;;;;;5.40;3.22;;;5.60;99.90;;;;;;5032934;28;20469;-57
2023/04/03 09:32:01;;;;;;;8.65;3.60;;;5.30;14.90;;;;;;5032580;28;20117;-56
2023/04/03 09:34:32;;;;;;;8.77;4.30;;;5.30;99.90;;;;;;5033224;28;20056;-58
2023/04/03 09:37:05;;;;;;;4.07;3.42;;;5.10;1.00;;;;;;5032695;28;20477;-56
2023/04/03 09:39:31;;;;;;;;;;;5.10;1.00;;;;;;5033237;28;20025;-54
2023/04/03 09:42:01;;;;;;;4.68;4.18;;;5.10;51.30;;;;;;5032273;28;20345;-52
2023/04/03 09:44:32;;;;;;;4.30;3.65;;;5.30;99.90;;;;;;5032409;28;20029;-57
2023/04/03 09:46:58;;;;;;;11.98;6.38;;;5.50;99.90;;;;;;5032491;28;20504;-57
2023/04/03 09:49:24;;;;;;;12.13;7.78;;;5.70;1.00;;;;;;5031050;28;20612;-55
2023/04/03 09:51:50;;;;;;;15.77;8.63;;;5.60;30.50;;;;;;5030150;28;20022;-57
2023/04/03 09:54:39;;;;;;;10.23;5.43;;;6.00;99.90;;;;;;5032014;28;20036;-55
2023/04/03 09:57:09;;;;;;;5.90;4.97;;;6.10;1.00;;;;;;5031750;28;20104;-55
2023/04/03 09:59:38;;;;;;;7.35;4.82;;;5.80;99.90;;;;;;5031791;28;20025;-57
2023/04/03 10:02:22;;;;;;;10.98;4.88;;;5.60;99.90;;;;;;5023536;28;20053;-50
2023/04/03 10:04:48;;;;;;;8.60;5.22;;;5.60;99.90;;;;;;5020737;28;20112;-59
2023/04/03 10:07:26;;;;;;;12.70;7.90;;;5.60;99.90;;;;;;5019727;28;20124;-55
2023/04/03 10:10:02;;;;;;;7.55;5.13;;;5.40;1.00;;;;;;5020534;28;20155;-58
2023/04/03 10:12:29;;;;;;;6.10;5.13;;;5.40;1.00;;;;;;5021452;28;20435;-50
2023/04/03 10:15:00;;;;;;;8.38;5.78;;;5.40;1.00;;;;;;5019780;28;20037;-58
2023/04/03 10:17:53;;;;;;;7.95;4.82;;;5.40;1.00;;;;;;5021103;28;20071;-60
2023/04/03 10:20:33;;;;;;;8.55;6.05;;;5.40;1.00;;;;;;5021901;28;20372;-58
2023/04/03 10:23:41;;;;;;;8.23;5.00;;;5.30;1.00;;;;;;5020139;28;20022;-57
2023/04/03 10:26:28;;;;;;;5.47;4.53;;;5.30;1.00;;;;;;5020709;28;20087;-56
2023/04/03 10:28:59;;;;;;;8.63;4.90;;;5.30;99.90;;;;;;5019984;28;20022;-56
2023/04/03 10:34:47;;;;;;;4.00;3.60;;;5.20;1.00;;;;;;5021284;28;20079;-56
2023/04/03 10:37:45;;;;;;;5.43;3.78;;;5.00;99.90;;;;;;5021196;28;20029;-52
2023/04/03 10:40:43;;;;;;;10.02;3.88;;;4.90;99.90;;;;;;5030249;28;20045;-58
2023/04/03 10:43:29;;;;;;;11.20;4.57;;;5.00;1.00;;;;;;5030154;28;20045;-52
2023/04/03 10:46:11;;;;;;;5.47;4.55;;;5.00;1.00;;;;;;5020634;28;20118;-58
2023/04/03 10:48:42;;;;;;;8.48;4.47;;;4.90;1.00;;;;;;5020681;28;20022;-56
2023/04/03 10:51:33;;;;;;;5.63;3.90;;;5.10;1.00;;;;;;5020961;28;20922;-59
2023/04/03 10:54:11;;;;;;;6.90;4.80;;;5.10;1.00;;;;;;5021453;28;20038;-57
2023/04/03 10:56:49;;;;;;;6.93;4.13;;;5.20;99.90;;;;;;5021657;28;20065;-56
2023/04/03 10:59:26;;;;;;;9.10;5.10;;;5.10;99.90;;;;;;5020916;28;20029;-56
2023/04/03 11:02:12;;;;;;;9.65;4.57;;;5.10;1.00;;;;;;5020779;28;20420;-53
2023/04/03 11:04:40;;;;;;;12.15;5.78;;;5.10;1.00;;;;;;5020722;28;20043;-57
2023/04/03 11:07:23;;;;;;;5.00;3.90;;;4.90;99.90;;;;;;5020290;28;20026;-58
2023/04/03 11:09:53;;;;;;;5.93;4.05;;;5.00;99.90;;;;;;5020710;28;20435;-59
2023/04/03 11:12:40;;;;;;;6.00;4.15;;;5.10;99.90;;;;;;5020920;28;20053;-56
2023/04/03 11:15:14;;;;;;;5.32;3.80;;;5.00;99.90;;;;;;5021361;28;20035;-56
2023/04/03 11:18:11;;;;;;;7.28;4.20;;;5.00;99.90;;;;;;5021809;28;20340;-55
2023/04/03 11:20:39;;;;;;;5.38;3.53;;;5.10;99.90;;;;;;5030966;28;20041;-54
2023/04/03 11:23:29;;;;;;;9.20;4.70;;;5.20;99.90;;;;;;5020658;28;20033;-53
2023/04/03 11:26:04;;;;;;;7.57;3.78;;;5.30;1.00;;;;;;5019885;28;20461;-55
2023/04/03 11:28:30;;;;;;;9.18;4.85;;;5.40;99.90;;;;;;5022362;28;20037;-54
2023/04/03 11:31:08;;;;;;;7.82;4.90;;;5.40;1.00;;;;;;5020557;28;20022;-57
2023/04/03 11:33:52;;;;;;;5.57;4.30;;;5.70;99.90;;;;;;5020353;28;20453;-57
2023/04/03 11:36:21;;;;;;;6.75;4.30;;;5.90;99.90;;;;;;5020750;28;20022;-57
2023/04/03 11:38:51;;;;;;;7.47;5.65;;;5.90;99.90;;;;;;5019422;28;20083;-54
2023/04/03 11:41:16;;;;;;;5.88;4.45;;;5.80;95.30;;;;;;5020351;28;20036;-53
2023/04/03 11:44:07;;;;;;;4.63;3.47;;;6.00;67.80;;;;;;5020560;28;20361;-54
2023/04/03 11:46:56;;;;;;;8.15;4.00;;;6.50;16.00;;;;;;5028914;28;20114;-55
2023/04/03 11:49:59;;;;;;;5.07;3.05;;;7.30;1.00;;;;;;5030899;28;20017;-57
2023/04/03 11:52:40;;;;;;;8.70;2.97;;;8.30;99.90;;;;;;5031025;28;20060;-58
2023/04/03 11:55:21;;;;;;;7.22;3.50;;;9.40;99.90;;;;;;5030502;28;20045;-59
2023/04/03 11:57:59;;;;;;;8.73;5.13;;;10.40;1.00;;;;;;5030540;28;20040;-57
2023/04/03 12:00:58;;;;;;;9.10;5.60;;;11.10;99.90;;;;;;5031683;28;20033;-56
2023/04/03 12:03:26;;;;;;;7.72;4.25;;;11.50;99.90;;;;;;5034905;28;20025;-56
2023/04/03 12:05:55;;;;;;;10.60;8.88;;;11.60;1.00;;;;;;5035732;28;20021;-56
2023/04/03 12:08:32;;;;;;;8.82;5.28;;;11.60;1.00;;;;;;5035412;28;20029;-59
2023/04/03 12:11:13;;;;;;;4.93;3.40;;;11.60;99.90;;;;;;5034902;28;20360;-57
2023/04/03 12:13:53;;;;;;;6.38;3.03;;;11.50;99.90;;;;;;5033951;28;20099;-60
2023/04/03 12:16:24;;;;;;;8.57;3.03;;;11.60;99.90;;;;;;5034191;28;20029;-55
2023/04/03 12:18:53;;;;;;;4.63;3.17;;;11.00;99.90;;;;;;5033848;28;20549;-57
2023/04/03 12:21:28;;;;;;;3.40;2.85;;;13.00;99.90;;;;;;5034069;28;20022;-55
2023/04/03 12:24:08;;;;;;;4.47;2.70;;;13.50;99.90;;;;;;5033982;28;20116;-54
2023/04/03 12:26:34;;;;;;;15.65;3.20;;;14.20;1.00;;;;;;5034136;28;20084;-56
2023/04/03 12:29:13;;;;;;;3.58;2.28;;;13.40;1.00;;;;;;5033780;28;20022;-55
2023/04/03 12:31:54;;;;;;;7.50;3.15;;;12.20;1.00;;;;;;5033732;28;20022;-55
2023/04/03 12:34:41;;;;;;;6.30;2.97;;;10.50;1.00;;;;;;5033865;28;20036;-52
2023/04/03 12:37:49;;;;;;;4.95;2.97;;;9.40;1.00;;;;;;5032452;28;20029;-56
2023/04/03 12:40:36;;;;;;;5.90;3.95;;;8.80;10.70;;;;;;5033492;28;20547;-56
2023/04/03 12:43:35;;;;;;;9.40;3.55;;;8.40;99.90;;;;;;5033399;28;20034;-55
2023/04/03 12:46:16;;;;;;;4.63;3.13;;;8.10;99.90;;;;;;5033192;28;20437;-56
2023/04/03 12:48:45;;;;;;;12.13;3.42;;;7.90;84.50;;;;;;5033514;28;20101;-53
2023/04/03 12:51:18;;;;;;;5.80;3.15;;;7.70;99.90;;;;;;5033391;28;20412;-52
2023/04/03 12:53:45;;;;;;;4.25;3.33;;;7.60;99.90;;;;;;5032135;28;20024;-50
2023/04/03 12:56:31;;;;;;;3.55;3.03;;;7.30;1.00;;;;;;5033137;28;20037;-55
2023/04/03 12:59:26;;;;;;;3.97;2.47;;;7.50;99.90;;;;;;5031891;28;20022;-56
2023/04/03 13:01:58;;;;;;;7.28;2.92;;;7.40;99.90;;;;;;5032531;28;20512;-54
2023/04/03 13:04:24;;;;;;;5.38;3.63;;;7.50;99.90;;;;;;5033367;28;20041;-53
2023/04/03 13:06:53;;;;;;;9.75;5.53;;;7.40;1.00;;;;;;5033210;28;20107;-56
2023/04/03 13:09:27;;;;;;;3.88;2.83;;;7.70;99.90;;;;;;5032799;28;20168;-56
2023/04/03 13:12:00;;;;;;;4.10;2.88;;;7.70;1.00;;;;;;5032124;28;20576;-56
2023/04/03 13:14:28;;;;;;;4.13;3.28;;;8.20;1.00;;;;;;5033052;28;20030;-53
2023/04/03 13:16:59;;;;;;;7.70;3.30;;;9.60;1.00;;;;;;5032786;28;20025;-57